sensor_id;sensor_type;location;lat;lon;timestamp;pressure;altitude;pressure_sealevel;temperature;humidity
75428;BME280;64008;55.612;37.698;2022-12-07T00:02:15;100751.44;;;-10.58;66.39
75428;BME280;64008;55.612;37.698;2022-12-07T00:04:41;100748.91;;;-10.60;66.78
75428;BME280;64008;55.612;37.698;2022-12-07T00:07:06;100744.50;;;-10.61;66.47
75428;BME280;64008;55.612;37.698;2022-12-07T00:09:32;100748.50;;;-10.63;65.89
75428;BME280;64008;55.612;37.698;2022-12-07T00:11:57;100742.44;;;-10.59;65.55
75428;BME280;64008;55.612;37.698;2022-12-07T00:14:23;100738.06;;;-10.53;65.98
75428;BME280;64008;55.612;37.698;2022-12-07T00:16:50;100746.22;;;-10.53;65.60
75428;BME280;64008;55.612;37.698;2022-12-07T00:19:16;100743.47;;;-10.60;64.82
75428;BME280;64008;55.612;37.698;2022-12-07T00:21:42;100748.28;;;-10.62;65.69
75428;BME280;64008;55.612;37.698;2022-12-07T00:24:07;100738.22;;;-10.68;66.11
75428;BME280;64008;55.612;37.698;2022-12-07T00:26:38;100737.78;;;-10.71;66.22
75428;BME280;64008;55.612;37.698;2022-12-07T00:29:15;100745.06;;;-10.78;66.29
75428;BME280;64008;55.612;37.698;2022-12-07T00:31:40;100738.38;;;-10.76;65.56
75428;BME280;64008;55.612;37.698;2022-12-07T00:34:24;100735.25;;;-10.73;65.99
75428;BME280;64008;55.612;37.698;2022-12-07T00:36:50;100733.97;;;-10.77;66.34
75428;BME280;64008;55.612;37.698;2022-12-07T00:39:15;100743.19;;;-10.78;65.46
75428;BME280;64008;55.612;37.698;2022-12-07T00:41:41;100739.25;;;-10.69;65.55
75428;BME280;64008;55.612;37.698;2022-12-07T00:44:07;100741.34;;;-10.71;65.14
75428;BME280;64008;55.612;37.698;2022-12-07T00:46:32;100755.53;;;-10.69;65.62
75428;BME280;64008;55.612;37.698;2022-12-07T00:48:58;100754.69;;;-10.69;65.75
75428;BME280;64008;55.612;37.698;2022-12-07T00:51:25;100739.69;;;-10.65;65.92
75428;BME280;64008;55.612;37.698;2022-12-07T00:53:51;100741.41;;;-10.58;65.13
75428;BME280;64008;55.612;37.698;2022-12-07T00:56:20;100738.03;;;-10.60;65.56
75428;BME280;64008;55.612;37.698;2022-12-07T00:58:55;100741.19;;;-10.63;65.18
75428;BME280;64008;55.612;37.698;2022-12-07T01:01:21;100752.25;;;-10.64;65.95
75428;BME280;64008;55.612;37.698;2022-12-07T01:03:47;100747.44;;;-10.62;65.83
75428;BME280;64008;55.612;37.698;2022-12-07T01:06:15;100747.03;;;-10.59;65.45
75428;BME280;64008;55.612;37.698;2022-12-07T01:08:41;100742.22;;;-10.64;65.44
75428;BME280;64008;55.612;37.698;2022-12-07T01:11:07;100742.19;;;-10.70;65.56
75428;BME280;64008;55.612;37.698;2022-12-07T01:13:34;100736.94;;;-10.72;65.88
75428;BME280;64008;55.612;37.698;2022-12-07T01:16:03;100740.88;;;-10.74;65.66
75428;BME280;64008;55.612;37.698;2022-12-07T01:18:30;100735.25;;;-10.73;65.69
75428;BME280;64008;55.612;37.698;2022-12-07T01:21:26;100739.81;;;-10.80;66.28
75428;BME280;64008;55.612;37.698;2022-12-07T01:23:52;100738.16;;;-10.81;65.99
75428;BME280;64008;55.612;37.698;2022-12-07T01:26:20;100735.59;;;-10.89;65.98
75428;BME280;64008;55.612;37.698;2022-12-07T01:28:46;100739.16;;;-10.89;65.85
75428;BME280;64008;55.612;37.698;2022-12-07T01:31:17;100736.44;;;-10.89;66.11
75428;BME280;64008;55.612;37.698;2022-12-07T01:33:46;100730.81;;;-10.87;65.78
75428;BME280;64008;55.612;37.698;2022-12-07T01:36:21;100728.13;;;-10.80;66.19
75428;BME280;64008;55.612;37.698;2022-12-07T01:38:50;100738.53;;;-10.84;65.67
75428;BME280;64008;55.612;37.698;2022-12-07T01:41:19;100732.25;;;-10.85;65.82
75428;BME280;64008;55.612;37.698;2022-12-07T01:46:40;100720.56;;;-10.85;66.11
75428;BME280;64008;55.612;37.698;2022-12-07T01:49:08;100709.66;;;-10.92;65.94
75428;BME280;64008;55.612;37.698;2022-12-07T01:51:37;100711.13;;;-10.96;66.23
75428;BME280;64008;55.612;37.698;2022-12-07T01:54:04;100723.03;;;-10.90;66.59
75428;BME280;64008;55.612;37.698;2022-12-07T01:56:31;100703.19;;;-10.91;66.33
75428;BME280;64008;55.612;37.698;2022-12-07T01:58:58;100707.97;;;-10.93;66.22
75428;BME280;64008;55.612;37.698;2022-12-07T02:01:25;100701.50;;;-10.98;66.66
75428;BME280;64008;55.612;37.698;2022-12-07T02:03:52;100710.03;;;-11.01;66.49
75428;BME280;64008;55.612;37.698;2022-12-07T02:06:22;100715.69;;;-11.03;66.35
75428;BME280;64008;55.612;37.698;2022-12-07T02:08:48;100717.56;;;-11.03;67.07
75428;BME280;64008;55.612;37.698;2022-12-07T02:11:14;100718.81;;;-10.99;66.70
75428;BME280;64008;55.612;37.698;2022-12-07T02:13:42;100712.34;;;-10.98;66.14
75428;BME280;64008;55.612;37.698;2022-12-07T02:19:47;100708.75;;;-11.05;66.34
75428;BME280;64008;55.612;37.698;2022-12-07T02:22:51;100710.44;;;-11.04;66.38
75428;BME280;64008;55.612;37.698;2022-12-07T02:28:12;100704.16;;;-11.05;66.99
75428;BME280;64008;55.612;37.698;2022-12-07T02:30:46;100708.75;;;-11.05;66.83
75428;BME280;64008;55.612;37.698;2022-12-07T02:33:18;100698.91;;;-11.13;66.69
75428;BME280;64008;55.612;37.698;2022-12-07T02:36:02;100702.00;;;-11.16;67.04
75428;BME280;64008;55.612;37.698;2022-12-07T02:38:58;100704.09;;;-11.18;67.39
75428;BME280;64008;55.612;37.698;2022-12-07T02:41:33;100697.19;;;-11.20;67.59
75428;BME280;64008;55.612;37.698;2022-12-07T02:44:21;100704.88;;;-11.24;67.22
75428;BME280;64008;55.612;37.698;2022-12-07T02:46:55;100693.41;;;-11.26;68.19
75428;BME280;64008;55.612;37.698;2022-12-07T02:49:24;100701.16;;;-11.16;67.65
75428;BME280;64008;55.612;37.698;2022-12-07T02:51:52;100704.28;;;-11.19;67.23
75428;BME280;64008;55.612;37.698;2022-12-07T02:54:19;100692.59;;;-11.20;68.07
75428;BME280;64008;55.612;37.698;2022-12-07T02:56:59;100699.91;;;-11.20;67.76
75428;BME280;64008;55.612;37.698;2022-12-07T02:59:45;100685.50;;;-11.21;67.69
75428;BME280;64008;55.612;37.698;2022-12-07T03:02:41;100687.34;;;-11.22;68.01
75428;BME280;64008;55.612;37.698;2022-12-07T03:08:15;100684.69;;;-11.15;67.54
75428;BME280;64008;55.612;37.698;2022-12-07T03:11:08;100686.16;;;-11.12;68.09
75428;BME280;64008;55.612;37.698;2022-12-07T03:14:03;100689.91;;;-11.13;67.61
75428;BME280;64008;55.612;37.698;2022-12-07T03:16:45;100686.56;;;-11.15;68.19
75428;BME280;64008;55.612;37.698;2022-12-07T03:19:18;100697.59;;;-11.17;68.38
75428;BME280;64008;55.612;37.698;2022-12-07T03:21:57;100690.31;;;-11.16;68.22
75428;BME280;64008;55.612;37.698;2022-12-07T03:24:27;100688.19;;;-11.21;67.84
75428;BME280;64008;55.612;37.698;2022-12-07T03:27:10;100679.00;;;-11.27;68.09
75428;BME280;64008;55.612;37.698;2022-12-07T03:29:42;100689.44;;;-11.24;68.00
75428;BME280;64008;55.612;37.698;2022-12-07T03:32:31;100689.19;;;-11.29;68.90
75428;BME280;64008;55.612;37.698;2022-12-07T03:35:45;100689.19;;;-11.29;68.60
75428;BME280;64008;55.612;37.698;2022-12-07T03:37:57;100674.59;;;-11.28;68.59
75428;BME280;64008;55.612;37.698;2022-12-07T03:40:40;100680.91;;;-11.20;68.50
75428;BME280;64008;55.612;37.698;2022-12-07T03:43:09;100688.41;;;-11.23;68.91
75428;BME280;64008;55.612;37.698;2022-12-07T03:45:41;100682.72;;;-11.28;68.94
75428;BME280;64008;55.612;37.698;2022-12-07T03:50:44;100689.19;;;-11.29;68.79
75428;BME280;64008;55.612;37.698;2022-12-07T03:53:24;100685.84;;;-11.31;68.99
75428;BME280;64008;55.612;37.698;2022-12-07T03:55:55;100689.84;;;-11.27;69.59
75428;BME280;64008;55.612;37.698;2022-12-07T03:58:22;100691.53;;;-11.26;69.63
75428;BME280;64008;55.612;37.698;2022-12-07T04:00:49;100688.53;;;-11.31;68.76
75428;BME280;64008;55.612;37.698;2022-12-07T04:03:15;100684.41;;;-11.27;69.88
75428;BME280;64008;55.612;37.698;2022-12-07T04:05:41;100689.19;;;-11.29;69.87
75428;BME280;64008;55.612;37.698;2022-12-07T04:08:07;100678.72;;;-11.32;69.54
75428;BME280;64008;55.612;37.698;2022-12-07T04:10:33;100685.59;;;-11.36;70.40
75428;BME280;64008;55.612;37.698;2022-12-07T04:12:58;100680.19;;;-11.36;69.96
75428;BME280;64008;55.612;37.698;2022-12-07T04:15:24;100686.00;;;-11.39;70.16
75428;BME280;64008;55.612;37.698;2022-12-07T04:17:49;100683.22;;;-11.45;69.93
75428;BME280;64008;55.612;37.698;2022-12-07T04:20:16;100681.38;;;-11.45;71.08
75428;BME280;64008;55.612;37.698;2022-12-07T04:22:42;100679.72;;;-11.39;71.55
75428;BME280;64008;55.612;37.698;2022-12-07T04:25:07;100678.03;;;-11.40;70.63
75428;BME280;64008;55.612;37.698;2022-12-07T04:27:33;100680.56;;;-11.39;71.70
75428;BME280;64008;55.612;37.698;2022-12-07T04:29:59;100678.34;;;-11.29;74.15
75428;BME280;64008;55.612;37.698;2022-12-07T04:32:25;100674.66;;;-11.14;73.26
75428;BME280;64008;55.612;37.698;2022-12-07T04:34:50;100675.78;;;-11.02;73.42
75428;BME280;64008;55.612;37.698;2022-12-07T04:37:16;100669.25;;;-11.08;71.99
75428;BME280;64008;55.612;37.698;2022-12-07T04:39:42;100661.06;;;-11.21;71.84
75428;BME280;64008;55.612;37.698;2022-12-07T04:42:10;100668.13;;;-11.27;71.93
75428;BME280;64008;55.612;37.698;2022-12-07T04:44:36;100666.59;;;-11.36;71.79
75428;BME280;64008;55.612;37.698;2022-12-07T04:47:02;100666.56;;;-11.42;72.00
75428;BME280;64008;55.612;37.698;2022-12-07T04:49:28;100674.06;;;-11.44;72.58
75428;BME280;64008;55.612;37.698;2022-12-07T04:51:53;100672.84;;;-11.42;72.87
75428;BME280;64008;55.612;37.698;2022-12-07T04:54:19;100653.72;;;-11.55;73.05
75428;BME280;64008;55.612;37.698;2022-12-07T04:56:44;100668.19;;;-11.48;73.04
75428;BME280;64008;55.612;37.698;2022-12-07T04:59:11;100680.28;;;-11.50;73.61
75428;BME280;64008;55.612;37.698;2022-12-07T05:01:37;100672.16;;;-11.50;73.24
75428;BME280;64008;55.612;37.698;2022-12-07T05:04:03;100668.31;;;-11.56;73.49
75428;BME280;64008;55.612;37.698;2022-12-07T05:06:29;100673.75;;;-11.56;73.54
75428;BME280;64008;55.612;37.698;2022-12-07T05:08:55;100681.28;;;-11.58;73.99
75428;BME280;64008;55.612;37.698;2022-12-07T05:11:20;100679.13;;;-11.63;73.50
75428;BME280;64008;55.612;37.698;2022-12-07T05:14:20;100678.72;;;-11.66;73.87
75428;BME280;64008;55.612;37.698;2022-12-07T05:16:48;100669.72;;;-11.67;74.46
75428;BME280;64008;55.612;37.698;2022-12-07T05:19:15;100683.88;;;-11.71;74.41
75428;BME280;64008;55.612;37.698;2022-12-07T05:21:41;100673.84;;;-11.77;74.68
75428;BME280;64008;55.612;37.698;2022-12-07T05:24:09;100673.59;;;-11.82;75.17
75428;BME280;64008;55.612;37.698;2022-12-07T05:26:35;100675.19;;;-11.88;75.03
75428;BME280;64008;55.612;37.698;2022-12-07T05:29:00;100664.56;;;-11.89;75.60
75428;BME280;64008;55.612;37.698;2022-12-07T05:31:26;100672.31;;;-11.86;75.88
75428;BME280;64008;55.612;37.698;2022-12-07T05:33:52;100669.22;;;-11.83;75.73
75428;BME280;64008;55.612;37.698;2022-12-07T05:36:18;100664.81;;;-11.84;75.49
75428;BME280;64008;55.612;37.698;2022-12-07T05:38:44;100663.50;;;-11.88;75.64
75428;BME280;64008;55.612;37.698;2022-12-07T05:41:13;100660.03;;;-11.82;76.88
75428;BME280;64008;55.612;37.698;2022-12-07T05:43:59;100663.38;;;-11.80;76.65
75428;BME280;64008;55.612;37.698;2022-12-07T05:46:25;100668.59;;;-11.79;76.53
75428;BME280;64008;55.612;37.698;2022-12-07T05:48:51;100664.03;;;-11.78;77.12
75428;BME280;64008;55.612;37.698;2022-12-07T05:51:16;100656.31;;;-11.81;77.06
75428;BME280;64008;55.612;37.698;2022-12-07T05:53:42;100666.94;;;-11.80;77.26
75428;BME280;64008;55.612;37.698;2022-12-07T05:56:07;100661.13;;;-11.77;77.12
75428;BME280;64008;55.612;37.698;2022-12-07T05:58:33;100672.19;;;-11.72;77.66
75428;BME280;64008;55.612;37.698;2022-12-07T06:01:17;100665.91;;;-11.72;77.05
75428;BME280;64008;55.612;37.698;2022-12-07T06:03:43;100670.31;;;-11.71;77.53
75428;BME280;64008;55.612;37.698;2022-12-07T06:06:08;100675.34;;;-11.68;77.63
75428;BME280;64008;55.612;37.698;2022-12-07T06:08:34;100671.41;;;-11.66;77.38
75428;BME280;64008;55.612;37.698;2022-12-07T06:10:59;100668.47;;;-11.64;78.20
75428;BME280;64008;55.612;37.698;2022-12-07T06:13:43;100669.13;;;-11.62;77.60
75428;BME280;64008;55.612;37.698;2022-12-07T06:16:09;100663.69;;;-11.62;78.27
75428;BME280;64008;55.612;37.698;2022-12-07T06:18:34;100672.88;;;-11.63;78.19
75428;BME280;64008;55.612;37.698;2022-12-07T06:21:00;100664.53;;;-11.62;77.93
75428;BME280;64008;55.612;37.698;2022-12-07T06:23:25;100664.34;;;-11.60;79.01
75428;BME280;64008;55.612;37.698;2022-12-07T06:25:51;100661.63;;;-11.60;78.90
75428;BME280;64008;55.612;37.698;2022-12-07T06:28:16;100650.63;;;-11.52;78.72
75428;BME280;64008;55.612;37.698;2022-12-07T06:30:42;100664.63;;;-11.48;78.64
75428;BME280;64008;55.612;37.698;2022-12-07T06:33:07;100672.56;;;-11.47;78.96
75428;BME280;64008;55.612;37.698;2022-12-07T06:35:33;100668.44;;;-11.43;79.08
75428;BME280;64008;55.612;37.698;2022-12-07T06:37:59;100669.91;;;-11.40;79.49
75428;BME280;64008;55.612;37.698;2022-12-07T06:40:24;100666.34;;;-11.41;79.51
75428;BME280;64008;55.612;37.698;2022-12-07T06:42:50;100663.91;;;-11.36;78.91
75428;BME280;64008;55.612;37.698;2022-12-07T06:45:15;100658.47;;;-11.36;79.46
75428;BME280;64008;55.612;37.698;2022-12-07T06:47:41;100660.16;;;-11.35;79.49
75428;BME280;64008;55.612;37.698;2022-12-07T06:50:07;100659.13;;;-11.34;79.02
75428;BME280;64008;55.612;37.698;2022-12-07T06:52:33;100658.03;;;-11.33;78.52
75428;BME280;64008;55.612;37.698;2022-12-07T06:54:59;100658.50;;;-11.29;79.03
75428;BME280;64008;55.612;37.698;2022-12-07T06:57:25;100664.38;;;-11.26;78.55
75428;BME280;64008;55.612;37.698;2022-12-07T06:59:51;100665.00;;;-11.24;79.03
75428;BME280;64008;55.612;37.698;2022-12-07T07:02:16;100671.91;;;-11.21;78.68
75428;BME280;64008;55.612;37.698;2022-12-07T07:04:43;100662.94;;;-11.22;78.66
75428;BME280;64008;55.612;37.698;2022-12-07T07:07:08;100672.75;;;-11.20;78.37
75428;BME280;64008;55.612;37.698;2022-12-07T07:09:34;100667.56;;;-11.15;78.91
75428;BME280;64008;55.612;37.698;2022-12-07T07:12:00;100676.88;;;-10.90;79.62
75428;BME280;64008;55.612;37.698;2022-12-07T07:14:25;100658.25;;;-10.93;77.90
75428;BME280;64008;55.612;37.698;2022-12-07T07:16:51;100659.50;;;-11.02;77.40
75428;BME280;64008;55.612;37.698;2022-12-07T07:19:16;100670.56;;;-11.04;78.14
75428;BME280;64008;55.612;37.698;2022-12-07T07:21:42;100673.66;;;-11.07;77.51
75428;BME280;64008;55.612;37.698;2022-12-07T07:24:07;100671.13;;;-11.08;78.04
75428;BME280;64008;55.612;37.698;2022-12-07T07:26:33;100670.53;;;-11.10;77.45
75428;BME280;64008;55.612;37.698;2022-12-07T07:28:58;100663.00;;;-11.08;77.30
75428;BME280;64008;55.612;37.698;2022-12-07T07:31:24;100656.53;;;-11.07;77.53
75428;BME280;64008;55.612;37.698;2022-12-07T07:33:49;100662.41;;;-11.04;77.44
75428;BME280;64008;55.612;37.698;2022-12-07T07:36:15;100660.94;;;-11.00;77.17
75428;BME280;64008;55.612;37.698;2022-12-07T07:38:40;100659.31;;;-10.94;77.54
75428;BME280;64008;55.612;37.698;2022-12-07T07:41:06;100656.19;;;-10.91;76.86
75428;BME280;64008;55.612;37.698;2022-12-07T07:43:32;100661.88;;;-10.86;77.18
75428;BME280;64008;55.612;37.698;2022-12-07T07:45:57;100656.03;;;-10.83;76.99
75428;BME280;64008;55.612;37.698;2022-12-07T07:48:23;100664.00;;;-10.75;76.73
75428;BME280;64008;55.612;37.698;2022-12-07T07:50:50;100655.47;;;-10.65;76.39
75428;BME280;64008;55.612;37.698;2022-12-07T07:53:16;100654.84;;;-10.61;76.77
75428;BME280;64008;55.612;37.698;2022-12-07T07:55:41;100662.41;;;-10.56;76.45
75428;BME280;64008;55.612;37.698;2022-12-07T07:58:07;100652.59;;;-10.51;76.16
75428;BME280;64008;55.612;37.698;2022-12-07T08:00:32;100652.19;;;-10.48;76.00
75428;BME280;64008;55.612;37.698;2022-12-07T08:02:58;100658.06;;;-10.37;75.45
75428;BME280;64008;55.612;37.698;2022-12-07T08:05:24;100653.88;;;-10.33;75.26
75428;BME280;64008;55.612;37.698;2022-12-07T08:07:50;100652.41;;;-10.29;75.13
75428;BME280;64008;55.612;37.698;2022-12-07T08:10:15;100644.50;;;-10.24;75.22
75428;BME280;64008;55.612;37.698;2022-12-07T08:12:42;100648.91;;;-10.23;75.07
75428;BME280;64008;55.612;37.698;2022-12-07T08:15:28;100645.53;;;-10.19;74.58
75428;BME280;64008;55.612;37.698;2022-12-07T08:17:53;100640.72;;;-10.17;74.61
75428;BME280;64008;55.612;37.698;2022-12-07T08:20:20;100635.06;;;-10.15;74.35
75428;BME280;64008;55.612;37.698;2022-12-07T08:22:45;100636.31;;;-9.45;73.58
75428;BME280;64008;55.612;37.698;2022-12-07T08:25:11;100631.28;;;-8.33;70.86
75428;BME280;64008;55.612;37.698;2022-12-07T08:27:36;100628.56;;;-7.52;68.87
75428;BME280;64008;55.612;37.698;2022-12-07T08:30:02;100626.97;;;-7.66;67.95
75428;BME280;64008;55.612;37.698;2022-12-07T08:32:28;100625.75;;;-7.70;67.16
75428;BME280;64008;55.612;37.698;2022-12-07T08:34:53;100626.63;;;-7.26;64.30
75428;BME280;64008;55.612;37.698;2022-12-07T08:37:19;100614.94;;;-6.31;63.16
75428;BME280;64008;55.612;37.698;2022-12-07T08:39:44;100621.03;;;-5.52;59.63
75428;BME280;64008;55.612;37.698;2022-12-07T08:42:10;100629.53;;;-4.55;63.10
75428;BME280;64008;55.612;37.698;2022-12-07T08:44:35;100620.00;;;-4.25;57.00
75428;BME280;64008;55.612;37.698;2022-12-07T08:47:02;100623.84;;;-4.09;58.90
75428;BME280;64008;55.612;37.698;2022-12-07T08:49:34;100611.25;;;-3.76;57.56
75428;BME280;64008;55.612;37.698;2022-12-07T08:52:01;100601.34;;;-3.61;55.12
75428;BME280;64008;55.612;37.698;2022-12-07T08:54:29;100602.56;;;-3.18;56.66
75428;BME280;64008;55.612;37.698;2022-12-07T08:56:55;100609.53;;;-3.11;55.33
75428;BME280;64008;55.612;37.698;2022-12-07T08:59:21;100605.19;;;-3.28;52.06
75428;BME280;64008;55.612;37.698;2022-12-07T09:01:48;100608.81;;;-3.23;55.22
75428;BME280;64008;55.612;37.698;2022-12-07T09:04:13;100603.94;;;-3.37;56.99
75428;BME280;64008;55.612;37.698;2022-12-07T09:06:39;100601.91;;;-3.59;55.15
75428;BME280;64008;55.612;37.698;2022-12-07T09:09:06;100593.78;;;-3.54;53.94
75428;BME280;64008;55.612;37.698;2022-12-07T09:11:31;100591.97;;;-4.67;54.63
75428;BME280;64008;55.612;37.698;2022-12-07T09:13:57;100592.06;;;-5.95;57.48
75428;BME280;64008;55.612;37.698;2022-12-07T09:16:23;100579.03;;;-7.01;59.27
75428;BME280;64008;55.612;37.698;2022-12-07T09:18:48;100597.56;;;-7.64;61.62
75428;BME280;64008;55.612;37.698;2022-12-07T09:21:14;100586.34;;;-8.05;62.80
75428;BME280;64008;55.612;37.698;2022-12-07T09:23:41;100599.00;;;-8.36;63.48
75428;BME280;64008;55.612;37.698;2022-12-07T09:26:07;100593.47;;;-8.54;63.93
75428;BME280;64008;55.612;37.698;2022-12-07T09:28:33;100590.56;;;-8.66;64.56
75428;BME280;64008;55.612;37.698;2022-12-07T09:30:59;100581.59;;;-8.73;64.80
75428;BME280;64008;55.612;37.698;2022-12-07T09:33:25;100581.19;;;-8.76;64.82
75428;BME280;64008;55.612;37.698;2022-12-07T09:35:51;100583.06;;;-8.77;65.08
75428;BME280;64008;55.612;37.698;2022-12-07T09:38:18;100572.81;;;-8.75;65.21
75428;BME280;64008;55.612;37.698;2022-12-07T09:40:44;100575.94;;;-8.71;65.28
75428;BME280;64008;55.612;37.698;2022-12-07T09:43:20;100578.22;;;-8.68;65.32
75428;BME280;64008;55.612;37.698;2022-12-07T09:45:48;100576.66;;;-8.51;65.81
75428;BME280;64008;55.612;37.698;2022-12-07T09:48:35;100570.75;;;-7.30;63.43
75428;BME280;64008;55.612;37.698;2022-12-07T09:51:03;100564.47;;;-5.93;59.67
75428;BME280;64008;55.612;37.698;2022-12-07T09:53:38;100553.00;;;-5.20;57.19
75428;BME280;64008;55.612;37.698;2022-12-07T09:56:04;100551.56;;;-4.71;57.53
75428;BME280;64008;55.612;37.698;2022-12-07T09:58:31;100555.16;;;-4.54;54.80
75428;BME280;64008;55.612;37.698;2022-12-07T10:03:32;100544.41;;;-5.82;56.82
75428;BME280;64008;55.612;37.698;2022-12-07T10:05:58;100549.25;;;-6.72;57.90
75428;BME280;64008;55.612;37.698;2022-12-07T10:08:24;100551.72;;;-7.37;60.08
75428;BME280;64008;55.612;37.698;2022-12-07T10:10:53;100544.84;;;-7.83;61.09
75428;BME280;64008;55.612;37.698;2022-12-07T10:13:21;100554.31;;;-8.10;62.32
75428;BME280;64008;55.612;37.698;2022-12-07T10:15:55;100540.81;;;-8.30;62.72
75428;BME280;64008;55.612;37.698;2022-12-07T10:23:38;100547.31;;;-8.56;63.73
75428;BME280;64008;55.612;37.698;2022-12-07T10:28:50;100541.47;;;-8.59;64.62
75428;BME280;64008;55.612;37.698;2022-12-07T10:31:21;100538.75;;;-8.59;64.60
75428;BME280;64008;55.612;37.698;2022-12-07T10:33:56;100534.13;;;-8.59;64.20
75428;BME280;64008;55.612;37.698;2022-12-07T10:36:38;100537.91;;;-8.60;64.76
75428;BME280;64008;55.612;37.698;2022-12-07T10:39:15;100538.75;;;-8.59;64.80
75428;BME280;64008;55.612;37.698;2022-12-07T10:42:02;100522.84;;;-8.62;64.87
75428;BME280;64008;55.612;37.698;2022-12-07T10:44:33;100537.06;;;-8.60;64.85
75428;BME280;64008;55.612;37.698;2022-12-07T10:56:00;100519.13;;;-8.43;66.01
75428;BME280;64008;55.612;37.698;2022-12-07T10:58:42;100505.56;;;-7.63;64.16
75428;BME280;64008;55.612;37.698;2022-12-07T11:12:16;100497.84;;;-5.47;58.57
75428;BME280;64008;55.612;37.698;2022-12-07T11:17:28;100490.38;;;-5.63;56.66
75428;BME280;64008;55.612;37.698;2022-12-07T11:31:27;100473.19;;;-7.78;61.28
75428;BME280;64008;55.612;37.698;2022-12-07T11:36:42;100481.50;;;-8.34;63.34
75428;BME280;64008;55.612;37.698;2022-12-07T11:39:33;100473.66;;;-8.49;64.07
75428;BME280;64008;55.612;37.698;2022-12-07T11:42:06;100494.28;;;-8.60;64.48
75428;BME280;64008;55.612;37.698;2022-12-07T11:47:26;100477.03;;;-8.78;65.34
75428;BME280;64008;55.612;37.698;2022-12-07T11:52:26;100462.00;;;-8.87;65.85
75428;BME280;64008;55.612;37.698;2022-12-07T11:54:53;100471.66;;;-8.92;66.03
75428;BME280;64008;55.612;37.698;2022-12-07T11:57:37;100455.75;;;-8.95;66.31
75428;BME280;64008;55.612;37.698;2022-12-07T12:00:14;100462.06;;;-9.01;66.40
75428;BME280;64008;55.612;37.698;2022-12-07T12:03:03;100467.13;;;-9.04;66.69
75428;BME280;64008;55.612;37.698;2022-12-07T12:05:33;100466.50;;;-9.06;67.10
75428;BME280;64008;55.612;37.698;2022-12-07T12:08:23;100455.44;;;-9.11;67.45
75428;BME280;64008;55.612;37.698;2022-12-07T12:21:46;100450.72;;;-9.29;68.44
75428;BME280;64008;55.612;37.698;2022-12-07T12:24:19;100447.38;;;-9.31;68.35
75428;BME280;64008;55.612;37.698;2022-12-07T12:27:01;100442.97;;;-9.32;68.43
75428;BME280;64008;55.612;37.698;2022-12-07T12:29:33;100429.19;;;-9.37;69.01
75428;BME280;64008;55.612;37.698;2022-12-07T12:42:55;100445.19;;;-9.54;70.07
75428;BME280;64008;55.612;37.698;2022-12-07T12:45:31;100451.06;;;-9.63;70.67
75428;BME280;64008;55.612;37.698;2022-12-07T12:48:02;100443.34;;;-9.73;70.94
75428;BME280;64008;55.612;37.698;2022-12-07T12:55:52;100445.72;;;-9.83;71.05
75428;BME280;64008;55.612;37.698;2022-12-07T13:03:53;100442.16;;;-9.97;71.53
75428;BME280;64008;55.612;37.698;2022-12-07T13:06:40;100440.72;;;-9.93;72.48
75428;BME280;64008;55.612;37.698;2022-12-07T13:09:27;100435.09;;;-9.98;72.13
75428;BME280;64008;55.612;37.698;2022-12-07T13:12:03;100437.19;;;-10.00;72.18
75428;BME280;64008;55.612;37.698;2022-12-07T13:14:41;100436.56;;;-10.02;71.93
75428;BME280;64008;55.612;37.698;2022-12-07T13:17:12;100436.78;;;-10.10;72.25
75428;BME280;64008;55.612;37.698;2022-12-07T13:20:06;100438.47;;;-10.16;72.92
75428;BME280;64008;55.612;37.698;2022-12-07T13:25:29;100445.78;;;-10.16;72.74
75428;BME280;64008;55.612;37.698;2022-12-07T13:28:02;100440.97;;;-10.14;72.82
75428;BME280;64008;55.612;37.698;2022-12-07T13:30:29;100438.72;;;-10.17;72.67
75428;BME280;64008;55.612;37.698;2022-12-07T13:32:58;100434.06;;;-10.17;72.77
75428;BME280;64008;55.612;37.698;2022-12-07T13:35:35;100418.25;;;-10.33;72.59
75428;BME280;64008;55.612;37.698;2022-12-07T13:38:05;100433.69;;;-10.27;73.12
75428;BME280;64008;55.612;37.698;2022-12-07T13:40:31;100433.50;;;-10.25;73.21
75428;BME280;64008;55.612;37.698;2022-12-07T13:42:58;100432.66;;;-10.32;73.37
75428;BME280;64008;55.612;37.698;2022-12-07T13:45:30;100428.06;;;-10.32;73.60
75428;BME280;64008;55.612;37.698;2022-12-07T13:48:45;100426.19;;;-10.31;73.76
75428;BME280;64008;55.612;37.698;2022-12-07T13:51:20;100422.44;;;-10.30;73.76
75428;BME280;64008;55.612;37.698;2022-12-07T13:53:55;100425.56;;;-10.33;74.21
75428;BME280;64008;55.612;37.698;2022-12-07T13:56:23;100426.94;;;-10.11;76.56
75428;BME280;64008;55.612;37.698;2022-12-07T13:58:51;100421.47;;;-9.91;76.87
75428;BME280;64008;55.612;37.698;2022-12-07T14:01:17;100418.75;;;-9.91;75.10
75428;BME280;64008;55.612;37.698;2022-12-07T14:03:43;100416.25;;;-9.93;74.56
75428;BME280;64008;55.612;37.698;2022-12-07T14:06:18;100403.06;;;-9.96;74.41
75428;BME280;64008;55.612;37.698;2022-12-07T14:08:45;100411.00;;;-9.94;74.36
75428;BME280;64008;55.612;37.698;2022-12-07T14:11:17;100404.97;;;-10.10;73.56
75428;BME280;64008;55.612;37.698;2022-12-07T14:19:40;100403.41;;;-10.43;73.94
75428;BME280;64008;55.612;37.698;2022-12-07T14:24:58;100400.09;;;-10.59;75.04
75428;BME280;64008;55.612;37.698;2022-12-07T14:27:24;100410.53;;;-10.56;74.74
75428;BME280;64008;55.612;37.698;2022-12-07T14:29:55;100402.38;;;-10.56;74.68
75428;BME280;64008;55.612;37.698;2022-12-07T14:32:24;100411.19;;;-10.54;76.00
75428;BME280;64008;55.612;37.698;2022-12-07T14:35:13;100407.00;;;-10.63;75.34
75428;BME280;64008;55.612;37.698;2022-12-07T14:37:41;100406.16;;;-10.63;75.69
75428;BME280;64008;55.612;37.698;2022-12-07T14:40:11;100398.22;;;-10.65;74.92